sensor_id;sensor_type;location;lat;lon;timestamp;temperature;humidity
65637;DHT22;52327;42.622;23.316;2023-06-26T00:00:48;18.77;81.04
65637;DHT22;52327;42.622;23.316;2023-06-26T00:03:14;18.45;81.92
65637;DHT22;52327;42.622;23.316;2023-06-26T00:05:41;18.22;82.78
65637;DHT22;52327;42.622;23.316;2023-06-26T00:08:07;18.35;82.21
65637;DHT22;52327;42.622;23.316;2023-06-26T00:10:32;18.69;81.68
65637;DHT22;52327;42.622;23.316;2023-06-26T00:12:59;18.79;81.29
65637;DHT22;52327;42.622;23.316;2023-06-26T00:15:25;18.67;81.38
65637;DHT22;52327;42.622;23.316;2023-06-26T00:17:50;18.66;81.67
65637;DHT22;52327;42.622;23.316;2023-06-26T00:20:17;18.61;81.34
65637;DHT22;52327;42.622;23.316;2023-06-26T00:22:44;18.76;81.12
65637;DHT22;52327;42.622;23.316;2023-06-26T00:25:10;18.80;80.72
65637;DHT22;52327;42.622;23.316;2023-06-26T00:27:35;18.59;81.36
65637;DHT22;52327;42.622;23.316;2023-06-26T00:30:04;18.29;82.34
65637;DHT22;52327;42.622;23.316;2023-06-26T00:32:30;18.35;82.05
65637;DHT22;52327;42.622;23.316;2023-06-26T00:34:55;18.35;82.19
65637;DHT22;52327;42.622;23.316;2023-06-26T00:37:21;18.21;83.07
65637;DHT22;52327;42.622;23.316;2023-06-26T00:39:47;18.38;82.11
65637;DHT22;52327;42.622;23.316;2023-06-26T00:42:12;18.35;82.33
65637;DHT22;52327;42.622;23.316;2023-06-26T00:44:41;18.35;82.47
65637;DHT22;52327;42.622;23.316;2023-06-26T00:47:06;18.16;83.00
65637;DHT22;52327;42.622;23.316;2023-06-26T00:49:32;18.36;82.01
65637;DHT22;52327;42.622;23.316;2023-06-26T00:51:58;18.42;81.87
65637;DHT22;52327;42.622;23.316;2023-06-26T00:54:24;18.35;81.77
65637;DHT22;52327;42.622;23.316;2023-06-26T00:56:49;18.08;82.47
65637;DHT22;52327;42.622;23.316;2023-06-26T00:59:18;18.19;81.75
65637;DHT22;52327;42.622;23.316;2023-06-26T01:01:43;18.10;82.14
65637;DHT22;52327;42.622;23.316;2023-06-26T01:04:09;17.94;82.87
65637;DHT22;52327;42.622;23.316;2023-06-26T01:06:43;18.01;82.25
65637;DHT22;52327;42.622;23.316;2023-06-26T01:09:20;18.12;82.15
65637;DHT22;52327;42.622;23.316;2023-06-26T01:11:46;17.87;82.69
65637;DHT22;52327;42.622;23.316;2023-06-26T01:14:12;17.88;82.67
65637;DHT22;52327;42.622;23.316;2023-06-26T01:16:39;17.98;81.90
65637;DHT22;52327;42.622;23.316;2023-06-26T01:19:18;17.89;81.75
65637;DHT22;52327;42.622;23.316;2023-06-26T01:24:44;17.98;81.23
65637;DHT22;52327;42.622;23.316;2023-06-26T01:27:13;17.88;81.64
65637;DHT22;52327;42.622;23.316;2023-06-26T01:29:40;17.94;81.62
65637;DHT22;52327;42.622;23.316;2023-06-26T01:32:06;17.89;81.60
65637;DHT22;52327;42.622;23.316;2023-06-26T01:34:35;17.84;81.93
65637;DHT22;52327;42.622;23.316;2023-06-26T01:37:04;17.74;82.39
65637;DHT22;52327;42.622;23.316;2023-06-26T01:39:29;17.67;82.29
65637;DHT22;52327;42.622;23.316;2023-06-26T01:41:55;17.71;82.11
65637;DHT22;52327;42.622;23.316;2023-06-26T01:44:23;17.74;81.76
65637;DHT22;52327;42.622;23.316;2023-06-26T01:53:32;17.61;82.21
65637;DHT22;52327;42.622;23.316;2023-06-26T01:55:53;17.53;82.58
65637;DHT22;52327;42.622;23.316;2023-06-26T01:58:21;17.63;82.24
65637;DHT22;52327;42.622;23.316;2023-06-26T02:00:48;17.54;82.57
65637;DHT22;52327;42.622;23.316;2023-06-26T02:03:13;17.58;82.70
65637;DHT22;52327;42.622;23.316;2023-06-26T02:05:39;17.71;82.64
65637;DHT22;52327;42.622;23.316;2023-06-26T02:08:05;17.81;81.67
65637;DHT22;52327;42.622;23.316;2023-06-26T02:10:31;17.97;81.15
65637;DHT22;52327;42.622;23.316;2023-06-26T02:12:58;18.09;80.47
65637;DHT22;52327;42.622;23.316;2023-06-26T02:15:24;17.97;80.63
65637;DHT22;52327;42.622;23.316;2023-06-26T02:17:50;18.18;79.71
65637;DHT22;52327;42.622;23.316;2023-06-26T02:20:15;18.28;79.60
65637;DHT22;52327;42.622;23.316;2023-06-26T02:22:41;18.24;79.65
65637;DHT22;52327;42.622;23.316;2023-06-26T02:25:07;18.04;80.25
65637;DHT22;52327;42.622;23.316;2023-06-26T02:27:34;18.10;80.06
65637;DHT22;52327;42.622;23.316;2023-06-26T02:30:00;17.92;80.71
65637;DHT22;52327;42.622;23.316;2023-06-26T02:32:25;17.71;81.34
65637;DHT22;52327;42.622;23.316;2023-06-26T02:34:51;17.54;81.79
65637;DHT22;52327;42.622;23.316;2023-06-26T02:37:19;17.46;82.26
65637;DHT22;52327;42.622;23.316;2023-06-26T02:39:45;17.53;81.99
65637;DHT22;52327;42.622;23.316;2023-06-26T02:42:11;17.66;81.55
65637;DHT22;52327;42.622;23.316;2023-06-26T02:44:36;17.64;81.36
65637;DHT22;52327;42.622;23.316;2023-06-26T02:47:02;17.61;81.52
65637;DHT22;52327;42.622;23.316;2023-06-26T02:49:27;17.77;80.89
65637;DHT22;52327;42.622;23.316;2023-06-26T02:51:52;17.67;81.40
65637;DHT22;52327;42.622;23.316;2023-06-26T02:54:20;17.82;81.21
65637;DHT22;52327;42.622;23.316;2023-06-26T02:56:48;17.88;80.82
65637;DHT22;52327;42.622;23.316;2023-06-26T02:59:14;18.08;80.40
65637;DHT22;52327;42.622;23.316;2023-06-26T03:01:40;17.88;80.93
65637;DHT22;52327;42.622;23.316;2023-06-26T03:04:07;17.78;80.73
65637;DHT22;52327;42.622;23.316;2023-06-26T03:06:35;17.68;81.53
65637;DHT22;52327;42.622;23.316;2023-06-26T03:09:01;17.81;81.03
65637;DHT22;52327;42.622;23.316;2023-06-26T03:11:27;18.06;80.13
65637;DHT22;52327;42.622;23.316;2023-06-26T03:13:53;17.97;80.09
65637;DHT22;52327;42.622;23.316;2023-06-26T03:16:18;18.05;79.75
65637;DHT22;52327;42.622;23.316;2023-06-26T03:18:44;17.98;79.68
65637;DHT22;52327;42.622;23.316;2023-06-26T03:21:15;18.08;79.69
65637;DHT22;52327;42.622;23.316;2023-06-26T03:23:41;18.04;79.78
65637;DHT22;52327;42.622;23.316;2023-06-26T03:26:08;17.84;80.45
65637;DHT22;52327;42.622;23.316;2023-06-26T03:28:34;17.75;80.83
65637;DHT22;52327;42.622;23.316;2023-06-26T03:30:59;17.81;80.97
65637;DHT22;52327;42.622;23.316;2023-06-26T03:33:25;17.68;81.37
65637;DHT22;52327;42.622;23.316;2023-06-26T03:35:50;17.74;81.15
65637;DHT22;52327;42.622;23.316;2023-06-26T03:38:16;18.02;80.49
65637;DHT22;52327;42.622;23.316;2023-06-26T03:40:41;17.88;80.69
65637;DHT22;52327;42.622;23.316;2023-06-26T03:43:07;18.01;80.22
65637;DHT22;52327;42.622;23.316;2023-06-26T03:45:32;17.87;80.81
65637;DHT22;52327;42.622;23.316;2023-06-26T03:47:59;18.12;79.66
65637;DHT22;52327;42.622;23.316;2023-06-26T03:50:25;17.99;79.80
65637;DHT22;52327;42.622;23.316;2023-06-26T03:52:50;18.24;79.76
65637;DHT22;52327;42.622;23.316;2023-06-26T03:55:17;18.38;79.11
65637;DHT22;52327;42.622;23.316;2023-06-26T03:57:43;18.38;79.65
65637;DHT22;52327;42.622;23.316;2023-06-26T04:00:09;18.08;79.92
65637;DHT22;52327;42.622;23.316;2023-06-26T04:02:36;18.22;79.97
65637;DHT22;52327;42.622;23.316;2023-06-26T04:05:04;17.89;80.35
65637;DHT22;52327;42.622;23.316;2023-06-26T04:07:37;18.09;80.10
65637;DHT22;52327;42.622;23.316;2023-06-26T04:10:03;17.94;79.96
65637;DHT22;52327;42.622;23.316;2023-06-26T04:12:28;17.87;80.11
65637;DHT22;52327;42.622;23.316;2023-06-26T04:14:54;17.82;80.45
65637;DHT22;52327;42.622;23.316;2023-06-26T04:17:19;17.89;80.48
65637;DHT22;52327;42.622;23.316;2023-06-26T04:19:45;17.94;79.87
65637;DHT22;52327;42.622;23.316;2023-06-26T04:22:11;17.97;80.30
65637;DHT22;52327;42.622;23.316;2023-06-26T04:24:36;18.08;79.31
65637;DHT22;52327;42.622;23.316;2023-06-26T04:27:02;18.19;78.95
65637;DHT22;52327;42.622;23.316;2023-06-26T04:29:28;18.13;79.03
65637;DHT22;52327;42.622;23.316;2023-06-26T04:31:54;18.18;79.00
65637;DHT22;52327;42.622;23.316;2023-06-26T04:34:27;18.15;78.65
65637;DHT22;52327;42.622;23.316;2023-06-26T04:36:53;18.33;78.45
65637;DHT22;52327;42.622;23.316;2023-06-26T04:39:18;18.46;77.85
65637;DHT22;52327;42.622;23.316;2023-06-26T04:41:44;18.28;78.83
65637;DHT22;52327;42.622;23.316;2023-06-26T04:44:10;18.35;78.68
65637;DHT22;52327;42.622;23.316;2023-06-26T04:46:36;18.59;77.72
65637;DHT22;52327;42.622;23.316;2023-06-26T04:49:02;18.61;78.34
65637;DHT22;52327;42.622;23.316;2023-06-26T04:51:28;18.63;78.41
65637;DHT22;52327;42.622;23.316;2023-06-26T04:53:54;18.60;78.20
65637;DHT22;52327;42.622;23.316;2023-06-26T04:56:19;18.60;77.93
65637;DHT22;52327;42.622;23.316;2023-06-26T04:58:45;18.45;78.70
65637;DHT22;52327;42.622;23.316;2023-06-26T05:01:10;18.81;77.95
65637;DHT22;52327;42.622;23.316;2023-06-26T05:03:39;18.69;77.74
65637;DHT22;52327;42.622;23.316;2023-06-26T05:06:05;18.56;78.27
65637;DHT22;52327;42.622;23.316;2023-06-26T05:08:30;18.79;78.45
65637;DHT22;52327;42.622;23.316;2023-06-26T05:10:55;18.97;77.60
65637;DHT22;52327;42.622;23.316;2023-06-26T05:13:25;18.81;77.94
65637;DHT22;52327;42.622;23.316;2023-06-26T05:15:51;18.66;78.59
65637;DHT22;52327;42.622;23.316;2023-06-26T05:18:17;18.61;78.86
65637;DHT22;52327;42.622;23.316;2023-06-26T05:20:43;19.01;78.04
65637;DHT22;52327;42.622;23.316;2023-06-26T05:23:10;18.70;78.20
65637;DHT22;52327;42.622;23.316;2023-06-26T05:25:37;18.81;78.68
65637;DHT22;52327;42.622;23.316;2023-06-26T05:28:03;18.84;78.10
65637;DHT22;52327;42.622;23.316;2023-06-26T05:30:30;18.83;78.31
65637;DHT22;52327;42.622;23.316;2023-06-26T05:32:59;19.07;77.59
65637;DHT22;52327;42.622;23.316;2023-06-26T05:35:28;19.49;76.13
65637;DHT22;52327;42.622;23.316;2023-06-26T05:37:55;19.35;75.42
65637;DHT22;52327;42.622;23.316;2023-06-26T05:40:20;19.59;75.17
65637;DHT22;52327;42.622;23.316;2023-06-26T05:42:46;19.25;75.97
65637;DHT22;52327;42.622;23.316;2023-06-26T05:45:12;19.03;76.51
65637;DHT22;52327;42.622;23.316;2023-06-26T05:47:38;19.08;76.73
65637;DHT22;52327;42.622;23.316;2023-06-26T05:50:04;19.14;76.60
65637;DHT22;52327;42.622;23.316;2023-06-26T05:52:29;19.39;76.47
65637;DHT22;52327;42.622;23.316;2023-06-26T05:54:56;19.41;76.28
65637;DHT22;52327;42.622;23.316;2023-06-26T05:57:25;19.35;76.53
65637;DHT22;52327;42.622;23.316;2023-06-26T05:59:51;19.34;76.48
65637;DHT22;52327;42.622;23.316;2023-06-26T06:02:17;19.31;76.51
65637;DHT22;52327;42.622;23.316;2023-06-26T06:04:43;19.22;76.83
65637;DHT22;52327;42.622;23.316;2023-06-26T06:07:08;19.39;77.09
65637;DHT22;52327;42.622;23.316;2023-06-26T06:09:34;19.61;76.31
65637;DHT22;52327;42.622;23.316;2023-06-26T06:11:59;19.82;75.56
65637;DHT22;52327;42.622;23.316;2023-06-26T06:14:27;20.03;74.91
65637;DHT22;52327;42.622;23.316;2023-06-26T06:16:52;20.05;74.59
65637;DHT22;52327;42.622;23.316;2023-06-26T06:19:18;19.71;75.37
65637;DHT22;52327;42.622;23.316;2023-06-26T06:21:43;19.72;75.67
65637;DHT22;52327;42.622;23.316;2023-06-26T06:24:09;20.09;74.72
65637;DHT22;52327;42.622;23.316;2023-06-26T06:26:35;20.32;74.40
65637;DHT22;52327;42.622;23.316;2023-06-26T06:29:01;20.08;73.37
65637;DHT22;52327;42.622;23.316;2023-06-26T06:31:26;19.83;73.45
65637;DHT22;52327;42.622;23.316;2023-06-26T06:33:54;19.73;74.27
65637;DHT22;52327;42.622;23.316;2023-06-26T06:36:19;19.68;74.86
65637;DHT22;52327;42.622;23.316;2023-06-26T06:38:45;19.58;74.62
65637;DHT22;52327;42.622;23.316;2023-06-26T06:41:11;19.75;74.05
65637;DHT22;52327;42.622;23.316;2023-06-26T06:43:36;19.58;74.30
65637;DHT22;52327;42.622;23.316;2023-06-26T06:46:02;19.38;75.07
65637;DHT22;52327;42.622;23.316;2023-06-26T06:48:28;19.57;75.17
65637;DHT22;52327;42.622;23.316;2023-06-26T06:50:53;19.31;75.34
65637;DHT22;52327;42.622;23.316;2023-06-26T06:53:18;19.35;76.06
65637;DHT22;52327;42.622;23.316;2023-06-26T06:55:48;19.75;75.04
65637;DHT22;52327;42.622;23.316;2023-06-26T06:58:13;20.13;73.88
65637;DHT22;52327;42.622;23.316;2023-06-26T07:00:39;20.71;72.23
65637;DHT22;52327;42.622;23.316;2023-06-26T07:03:04;20.48;71.68
65637;DHT22;52327;42.622;23.316;2023-06-26T07:05:30;20.54;71.41
65637;DHT22;52327;42.622;23.316;2023-06-26T07:07:55;20.36;71.44
65637;DHT22;52327;42.622;23.316;2023-06-26T07:10:21;20.37;70.81
65637;DHT22;52327;42.622;23.316;2023-06-26T07:12:46;20.29;70.64
65637;DHT22;52327;42.622;23.316;2023-06-26T07:15:12;20.60;71.53
65637;DHT22;52327;42.622;23.316;2023-06-26T07:17:38;20.78;72.15
65637;DHT22;52327;42.622;23.316;2023-06-26T07:20:04;20.75;71.08
65637;DHT22;52327;42.622;23.316;2023-06-26T07:22:34;20.88;69.89
65637;DHT22;52327;42.622;23.316;2023-06-26T07:25:00;20.94;68.80
65637;DHT22;52327;42.622;23.316;2023-06-26T07:27:25;20.78;68.61
65637;DHT22;52327;42.622;23.316;2023-06-26T07:29:51;20.65;67.35
65637;DHT22;52327;42.622;23.316;2023-06-26T07:32:16;20.92;69.77
65637;DHT22;52327;42.622;23.316;2023-06-26T07:34:42;20.96;69.76
65637;DHT22;52327;42.622;23.316;2023-06-26T07:37:07;21.50;69.65
65637;DHT22;52327;42.622;23.316;2023-06-26T07:39:33;22.03;68.34
65637;DHT22;52327;42.622;23.316;2023-06-26T07:41:58;22.06;66.54
65637;DHT22;52327;42.622;23.316;2023-06-26T07:44:24;21.60;66.89
65637;DHT22;52327;42.622;23.316;2023-06-26T07:46:50;21.65;65.79
65637;DHT22;52327;42.622;23.316;2023-06-26T07:49:16;21.57;65.54
65637;DHT22;52327;42.622;23.316;2023-06-26T07:51:41;21.83;64.53
65637;DHT22;52327;42.622;23.316;2023-06-26T07:54:06;22.15;63.80
65637;DHT22;52327;42.622;23.316;2023-06-26T07:56:36;22.06;63.88
65637;DHT22;52327;42.622;23.316;2023-06-26T07:59:16;21.97;64.47
65637;DHT22;52327;42.622;23.316;2023-06-26T08:01:42;22.07;63.23
65637;DHT22;52327;42.622;23.316;2023-06-26T08:04:07;22.38;64.86
65637;DHT22;52327;42.622;23.316;2023-06-26T08:06:35;22.28;63.33
65637;DHT22;52327;42.622;23.316;2023-06-26T08:09:01;22.49;63.32
65637;DHT22;52327;42.622;23.316;2023-06-26T08:11:30;22.18;62.49
65637;DHT22;52327;42.622;23.316;2023-06-26T08:13:55;22.31;63.93
65637;DHT22;52327;42.622;23.316;2023-06-26T08:16:21;21.92;63.87
65637;DHT22;52327;42.622;23.316;2023-06-26T08:18:46;21.42;65.43
65637;DHT22;52327;42.622;23.316;2023-06-26T08:21:11;21.53;63.18
65637;DHT22;52327;42.622;23.316;2023-06-26T08:23:37;21.82;62.69
65637;DHT22;52327;42.622;23.316;2023-06-26T08:26:02;22.18;61.72
65637;DHT22;52327;42.622;23.316;2023-06-26T08:28:28;21.92;61.67
65637;DHT22;52327;42.622;23.316;2023-06-26T08:30:53;22.28;61.77
65637;DHT22;52327;42.622;23.316;2023-06-26T08:33:19;22.04;63.78
65637;DHT22;52327;42.622;23.316;2023-06-26T08:35:45;22.31;64.12
65637;DHT22;52327;42.622;23.316;2023-06-26T08:38:10;22.17;62.62
65637;DHT22;52327;42.622;23.316;2023-06-26T08:40:36;22.15;64.54
65637;DHT22;52327;42.622;23.316;2023-06-26T08:43:01;22.06;63.93
65637;DHT22;52327;42.622;23.316;2023-06-26T08:45:28;22.06;63.89
65637;DHT22;52327;42.622;23.316;2023-06-26T08:47:55;22.24;62.09
65637;DHT22;52327;42.622;23.316;2023-06-26T08:50:28;22.08;63.65
65637;DHT22;52327;42.622;23.316;2023-06-26T08:53:23;22.20;61.94
65637;DHT22;52327;42.622;23.316;2023-06-26T08:55:48;22.54;59.87
65637;DHT22;52327;42.622;23.316;2023-06-26T08:58:17;22.82;62.30
65637;DHT22;52327;42.622;23.316;2023-06-26T09:00:42;22.30;61.41
65637;DHT22;52327;42.622;23.316;2023-06-26T09:03:10;22.15;61.06
65637;DHT22;52327;42.622;23.316;2023-06-26T09:05:35;21.97;60.77
65637;DHT22;52327;42.622;23.316;2023-06-26T09:08:02;21.94;60.86
65637;DHT22;52327;42.622;23.316;2023-06-26T09:10:27;22.20;61.68
65637;DHT22;52327;42.622;23.316;2023-06-26T09:12:55;22.51;62.90
65637;DHT22;52327;42.622;23.316;2023-06-26T09:15:23;22.96;60.75
65637;DHT22;52327;42.622;23.316;2023-06-26T09:17:49;23.57;60.38
65637;DHT22;52327;42.622;23.316;2023-06-26T09:20:15;23.82;57.61
65637;DHT22;52327;42.622;23.316;2023-06-26T09:22:42;23.63;57.03
65637;DHT22;52327;42.622;23.316;2023-06-26T09:25:09;23.73;58.25
65637;DHT22;52327;42.622;23.316;2023-06-26T09:27:35;23.60;56.38
65637;DHT22;52327;42.622;23.316;2023-06-26T09:30:05;23.56;56.71
65637;DHT22;52327;42.622;23.316;2023-06-26T09:32:34;23.68;56.88
65637;DHT22;52327;42.622;23.316;2023-06-26T09:35:04;23.71;58.13
65637;DHT22;52327;42.622;23.316;2023-06-26T09:37:29;23.91;57.22
65637;DHT22;52327;42.622;23.316;2023-06-26T09:39:55;23.84;57.78
65637;DHT22;52327;42.622;23.316;2023-06-26T09:42:22;23.30;57.74
65637;DHT22;52327;42.622;23.316;2023-06-26T09:44:48;23.54;58.24
65637;DHT22;52327;42.622;23.316;2023-06-26T09:47:19;23.31;58.17
65637;DHT22;52327;42.622;23.316;2023-06-26T09:49:45;23.31;59.03
65637;DHT22;52327;42.622;23.316;2023-06-26T09:52:14;23.57;57.75
65637;DHT22;52327;42.622;23.316;2023-06-26T09:54:42;23.39;56.66
65637;DHT22;52327;42.622;23.316;2023-06-26T09:57:13;23.09;56.82
65637;DHT22;52327;42.622;23.316;2023-06-26T09:59:43;23.42;56.21
65637;DHT22;52327;42.622;23.316;2023-06-26T10:02:11;23.22;55.88
65637;DHT22;52327;42.622;23.316;2023-06-26T10:04:37;23.13;57.70
65637;DHT22;52327;42.622;23.316;2023-06-26T10:07:09;23.20;58.38
65637;DHT22;52327;42.622;23.316;2023-06-26T10:09:38;23.34;56.73
65637;DHT22;52327;42.622;23.316;2023-06-26T10:12:21;23.84;56.26
65637;DHT22;52327;42.622;23.316;2023-06-26T10:14:49;24.49;56.18
65637;DHT22;52327;42.622;23.316;2023-06-26T10:17:17;24.52;53.33
65637;DHT22;52327;42.622;23.316;2023-06-26T10:19:44;24.36;51.71
65637;DHT22;52327;42.622;23.316;2023-06-26T10:22:14;23.91;52.96
65637;DHT22;52327;42.622;23.316;2023-06-26T10:24:41;23.77;52.92
65637;DHT22;52327;42.622;23.316;2023-06-26T10:27:16;23.96;53.68
65637;DHT22;52327;42.622;23.316;2023-06-26T10:29:55;24.11;52.45
65637;DHT22;52327;42.622;23.316;2023-06-26T10:32:49;24.29;52.26
65637;DHT22;52327;42.622;23.316;2023-06-26T10:35:17;24.38;51.12
65637;DHT22;52327;42.622;23.316;2023-06-26T10:37:50;24.15;52.21
65637;DHT22;52327;42.622;23.316;2023-06-26T10:40:25;24.19;51.85
65637;DHT22;52327;42.622;23.316;2023-06-26T10:42:51;23.81;52.16
65637;DHT22;52327;42.622;23.316;2023-06-26T10:45:20;23.70;53.36
65637;DHT22;52327;42.622;23.316;2023-06-26T10:47:47;24.07;53.12
65637;DHT22;52327;42.622;23.316;2023-06-26T10:50:28;23.78;53.35
65637;DHT22;52327;42.622;23.316;2023-06-26T10:55:49;23.68;52.90
65637;DHT22;52327;42.622;23.316;2023-06-26T11:03:38;23.70;51.12
65637;DHT22;52327;42.622;23.316;2023-06-26T11:06:19;23.98;52.75
65637;DHT22;52327;42.622;23.316;2023-06-26T11:09:23;24.49;52.19
65637;DHT22;52327;42.622;23.316;2023-06-26T11:14:19;24.55;51.71
65637;DHT22;52327;42.622;23.316;2023-06-26T11:16:45;24.55;51.24
65637;DHT22;52327;42.622;23.316;2023-06-26T11:19:14;24.36;52.85
65637;DHT22;52327;42.622;23.316;2023-06-26T11:21:39;24.19;53.36
65637;DHT22;52327;42.622;23.316;2023-06-26T11:24:07;23.97;52.31
65637;DHT22;52327;42.622;23.316;2023-06-26T11:26:39;24.53;51.50
65637;DHT22;52327;42.622;23.316;2023-06-26T11:29:05;24.51;53.28
65637;DHT22;52327;42.622;23.316;2023-06-26T11:31:38;24.42;51.60
65637;DHT22;52327;42.622;23.316;2023-06-26T11:34:06;24.22;52.00
65637;DHT22;52327;42.622;23.316;2023-06-26T11:36:32;24.19;52.17
65637;DHT22;52327;42.622;23.316;2023-06-26T11:39:03;24.00;51.92
65637;DHT22;52327;42.622;23.316;2023-06-26T11:41:32;24.48;51.19
65637;DHT22;52327;42.622;23.316;2023-06-26T11:44:05;24.86;51.75
65637;DHT22;52327;42.622;23.316;2023-06-26T11:46:31;24.76;49.76
65637;DHT22;52327;42.622;23.316;2023-06-26T11:48:56;24.56;50.40
65637;DHT22;52327;42.622;23.316;2023-06-26T11:51:22;24.29;51.58
65637;DHT22;52327;42.622;23.316;2023-06-26T11:53:49;24.32;50.71
65637;DHT22;52327;42.622;23.316;2023-06-26T11:56:16;24.53;50.86
65637;DHT22;52327;42.622;23.316;2023-06-26T11:59:02;25.02;51.18
65637;DHT22;52327;42.622;23.316;2023-06-26T12:01:36;25.42;49.40
65637;DHT22;52327;42.622;23.316;2023-06-26T12:04:03;25.72;49.49
65637;DHT22;52327;42.622;23.316;2023-06-26T12:06:31;25.17;46.98
65637;DHT22;52327;42.622;23.316;2023-06-26T12:08:59;24.45;50.45
65637;DHT22;52327;42.622;23.316;2023-06-26T12:11:26;24.14;50.51
65637;DHT22;52327;42.622;23.316;2023-06-26T12:13:53;24.28;50.68
65637;DHT22;52327;42.622;23.316;2023-06-26T12:16:19;24.79;50.17
65637;DHT22;52327;42.622;23.316;2023-06-26T12:18:45;25.35;47.90
65637;DHT22;52327;42.622;23.316;2023-06-26T12:21:28;24.86;48.92
65637;DHT22;52327;42.622;23.316;2023-06-26T12:24:00;25.04;49.80
65637;DHT22;52327;42.622;23.316;2023-06-26T12:26:26;24.91;49.88
65637;DHT22;52327;42.622;23.316;2023-06-26T12:28:53;25.00;49.71
65637;DHT22;52327;42.622;23.316;2023-06-26T12:31:20;25.23;48.38
65637;DHT22;52327;42.622;23.316;2023-06-26T12:33:47;25.65;47.42
65637;DHT22;52327;42.622;23.316;2023-06-26T12:36:13;25.75;46.67
65637;DHT22;52327;42.622;23.316;2023-06-26T12:38:40;25.75;46.71
65637;DHT22;52327;42.622;23.316;2023-06-26T12:41:05;25.91;46.66
65637;DHT22;52327;42.622;23.316;2023-06-26T12:43:32;25.77;46.24
65637;DHT22;52327;42.622;23.316;2023-06-26T12:45:58;25.75;45.99
65637;DHT22;52327;42.622;23.316;2023-06-26T12:48:40;25.91;46.11
65637;DHT22;52327;42.622;23.316;2023-06-26T12:51:10;25.58;46.21
65637;DHT22;52327;42.622;23.316;2023-06-26T12:53:36;25.38;48.12
65637;DHT22;52327;42.622;23.316;2023-06-26T12:56:01;25.14;48.68
65637;DHT22;52327;42.622;23.316;2023-06-26T12:58:27;25.13;49.44
65637;DHT22;52327;42.622;23.316;2023-06-26T13:00:52;24.58;49.56
65637;DHT22;52327;42.622;23.316;2023-06-26T13:03:19;24.40;50.00
65637;DHT22;52327;42.622;23.316;2023-06-26T13:05:46;24.58;50.18
65637;DHT22;52327;42.622;23.316;2023-06-26T13:08:11;24.68;48.97
65637;DHT22;52327;42.622;23.316;2023-06-26T13:10:37;24.82;49.48
65637;DHT22;52327;42.622;23.316;2023-06-26T13:13:02;24.83;49.76
65637;DHT22;52327;42.622;23.316;2023-06-26T13:15:28;25.07;49.26
65637;DHT22;52327;42.622;23.316;2023-06-26T13:17:53;25.35;48.89
65637;DHT22;52327;42.622;23.316;2023-06-26T13:20:19;25.14;49.69
65637;DHT22;52327;42.622;23.316;2023-06-26T13:22:44;24.72;51.29
65637;DHT22;52327;42.622;23.316;2023-06-26T13:25:11;24.79;52.05
65637;DHT22;52327;42.622;23.316;2023-06-26T13:27:37;24.63;51.84
65637;DHT22;52327;42.622;23.316;2023-06-26T13:30:02;24.43;53.12
65637;DHT22;52327;42.622;23.316;2023-06-26T13:32:28;24.58;53.02
65637;DHT22;52327;42.622;23.316;2023-06-26T13:34:53;24.73;52.24
65637;DHT22;52327;42.622;23.316;2023-06-26T13:37:19;24.87;52.51
65637;DHT22;52327;42.622;23.316;2023-06-26T13:39:45;25.27;51.73
65637;DHT22;52327;42.622;23.316;2023-06-26T13:42:16;25.47;49.72
65637;DHT22;52327;42.622;23.316;2023-06-26T13:44:41;25.33;50.43
65637;DHT22;52327;42.622;23.316;2023-06-26T13:47:07;25.71;50.10
65637;DHT22;52327;42.622;23.316;2023-06-26T13:49:33;25.88;48.78
65637;DHT22;52327;42.622;23.316;2023-06-26T13:51:58;26.21;47.97
65637;DHT22;52327;42.622;23.316;2023-06-26T13:54:24;26.49;46.86
65637;DHT22;52327;42.622;23.316;2023-06-26T13:56:49;26.02;46.42
65637;DHT22;52327;42.622;23.316;2023-06-26T13:59:15;25.51;47.15
65637;DHT22;52327;42.622;23.316;2023-06-26T14:01:40;25.28;48.26
65637;DHT22;52327;42.622;23.316;2023-06-26T14:04:08;25.31;48.17
65637;DHT22;52327;42.622;23.316;2023-06-26T14:06:33;24.68;49.84
65637;DHT22;52327;42.622;23.316;2023-06-26T14:09:00;24.40;51.12
65637;DHT22;52327;42.622;23.316;2023-06-26T14:11:25;24.12;52.08
65637;DHT22;52327;42.622;23.316;2023-06-26T14:13:51;24.15;52.43
65637;DHT22;52327;42.622;23.316;2023-06-26T14:16:16;24.04;52.45
65637;DHT22;52327;42.622;23.316;2023-06-26T14:18:43;23.91;52.54
65637;DHT22;52327;42.622;23.316;2023-06-26T14:21:09;23.66;52.75
65637;DHT22;52327;42.622;23.316;2023-06-26T14:23:34;23.93;52.04
65637;DHT22;52327;42.622;23.316;2023-06-26T14:26:00;23.81;52.16
65637;DHT22;52327;42.622;23.316;2023-06-26T14:28:26;23.85;52.11
65637;DHT22;52327;42.622;23.316;2023-06-26T14:30:51;24.33;51.69
65637;DHT22;52327;42.622;23.316;2023-06-26T14:33:16;24.56;51.64
65637;DHT22;52327;42.622;23.316;2023-06-26T14:35:42;24.99;50.59
65637;DHT22;52327;42.622;23.316;2023-06-26T14:38:07;26.06;49.02
65637;DHT22;52327;42.622;23.316;2023-06-26T14:40:33;26.28;47.09
65637;DHT22;52327;42.622;23.316;2023-06-26T14:42:58;26.12;47.64
65637;DHT22;52327;42.622;23.316;2023-06-26T14:45:23;26.61;47.05
65637;DHT22;52327;42.622;23.316;2023-06-26T14:47:49;27.15;45.30
65637;DHT22;52327;42.622;23.316;2023-06-26T14:50:14;27.25;45.49
65637;DHT22;52327;42.622;23.316;2023-06-26T14:52:40;26.25;45.73
65637;DHT22;52327;42.622;23.316;2023-06-26T14:55:05;25.95;47.94
65637;DHT22;52327;42.622;23.316;2023-06-26T14:57:31;25.19;48.11
65637;DHT22;52327;42.622;23.316;2023-06-26T14:59:57;25.03;49.22
65637;DHT22;52327;42.622;23.316;2023-06-26T15:02:22;24.65;52.87
65637;DHT22;52327;42.622;23.316;2023-06-26T15:04:48;24.01;58.19
65637;DHT22;52327;42.622;23.316;2023-06-26T15:07:13;23.60;59.94
65637;DHT22;52327;42.622;23.316;2023-06-26T15:09:38;23.60;60.74
65637;DHT22;52327;42.622;23.316;2023-06-26T15:12:04;23.47;61.10
65637;DHT22;52327;42.622;23.316;2023-06-26T15:14:30;23.23;61.83
65637;DHT22;52327;42.622;23.316;2023-06-26T15:16:55;23.03;63.50
65637;DHT22;52327;42.622;23.316;2023-06-26T15:19:20;22.56;63.10
65637;DHT22;52327;42.622;23.316;2023-06-26T15:21:46;22.38;63.97
65637;DHT22;52327;42.622;23.316;2023-06-26T15:24:11;22.48;65.12
65637;DHT22;52327;42.622;23.316;2023-06-26T15:26:37;22.30;65.06
65637;DHT22;52327;42.622;23.316;2023-06-26T15:29:02;22.40;67.21
65637;DHT22;52327;42.622;23.316;2023-06-26T15:31:29;22.55;67.05
65637;DHT22;52327;42.622;23.316;2023-06-26T15:33:55;22.54;68.44